createdAt,value
2019-01-26T00:03:13.137Z,39.60
2019-01-26T00:16:35.919Z,39.70
2019-01-26T00:43:33.598Z,39.60
2019-01-26T00:56:40.733Z,39.50
2019-01-26T01:09:47.937Z,39.60
2019-01-26T01:22:55.037Z,39.30
2019-01-26T01:36:02.177Z,39.60
2019-01-26T01:49:09.300Z,39.40
2019-01-26T02:02:32.944Z,39.40
2019-01-26T02:15:55.755Z,39.40
2019-01-26T02:29:18.595Z,39.50
2019-01-26T02:42:41.398Z,39.40
2019-01-26T02:56:04.191Z,39.40
2019-01-26T03:09:27.022Z,39.50
2019-01-26T03:22:49.872Z,39.60
2019-01-26T03:36:12.674Z,39.60
2019-01-26T03:49:35.484Z,39.70
2019-01-26T04:02:58.291Z,39.70
2019-01-26T04:16:21.086Z,39.70
2019-01-26T04:29:43.897Z,39.80
2019-01-26T04:43:06.738Z,39.70
2019-01-26T04:56:29.536Z,39.80
2019-01-26T05:09:52.378Z,40.50
2019-01-26T05:36:16.844Z,39.80
2019-01-26T05:49:24.010Z,39.90
2019-01-26T06:02:31.147Z,39.90
2019-01-26T06:15:38.262Z,40.00
2019-01-26T06:28:45.406Z,40.10
2019-01-26T06:41:52.572Z,39.90
2019-01-26T06:55:16.586Z,39.90
2019-01-26T07:08:39.441Z,40.10
2019-01-26T07:22:02.216Z,40.00
2019-01-26T07:35:25.023Z,40.30
2019-01-26T07:48:47.826Z,40.30
2019-01-26T08:02:10.684Z,40.00
2019-01-26T08:15:33.484Z,40.10
2019-01-26T08:28:56.312Z,39.60
2019-01-26T08:42:19.123Z,39.80
2019-01-26T08:55:41.923Z,41.10
2019-01-26T09:09:04.766Z,43.90
2019-01-26T09:22:27.586Z,44.60
2019-01-26T09:35:50.438Z,44.30
2019-01-26T09:49:13.205Z,44.50
2019-01-26T10:02:36.038Z,43.80
2019-01-26T10:15:58.836Z,43.50
2019-01-26T10:29:21.643Z,47.90
2019-01-26T10:42:44.472Z,46.60
2019-01-26T10:56:07.355Z,46.80
2019-01-26T11:09:30.099Z,46.40
2019-01-26T11:22:52.897Z,45.90
2019-01-26T11:36:15.721Z,45.10
2019-01-26T11:49:38.531Z,42.00
2019-01-26T12:03:01.375Z,42.90
2019-01-26T12:16:26.845Z,43.20
2019-01-26T12:29:47.220Z,43.30
2019-01-26T12:43:09.807Z,44.70
2019-01-26T12:56:32.628Z,45.10
2019-01-26T13:09:55.470Z,46.30
2019-01-26T13:23:18.302Z,45.80
2019-01-26T13:36:41.066Z,45.60
2019-01-26T13:50:03.879Z,45.30
2019-01-26T14:03:26.692Z,45.30
2019-01-26T14:16:49.520Z,45.40
2019-01-26T14:43:13.993Z,45.80
2019-01-26T14:56:21.212Z,45.20
2019-01-26T15:09:28.371Z,45.30
2019-01-26T15:22:35.553Z,45.40
2019-01-26T15:35:42.723Z,45.30
2019-01-26T15:48:49.867Z,45.30
2019-01-26T16:02:13.744Z,45.00
2019-01-26T16:15:36.611Z,44.80
2019-01-26T16:28:59.392Z,44.90
2019-01-26T16:42:22.176Z,44.70
2019-01-26T16:55:45.002Z,44.60
2019-01-26T17:22:43.539Z,44.40
2019-01-26T17:35:50.687Z,44.40
2019-01-26T17:48:57.965Z,44.40
2019-01-26T18:02:05.115Z,44.50
2019-01-26T18:15:29.155Z,44.50
2019-01-26T18:28:51.933Z,44.50
2019-01-26T18:42:14.889Z,44.50
2019-01-26T18:55:37.579Z,44.20
2019-01-26T19:09:00.492Z,44.30
2019-01-26T19:22:23.260Z,44.40
2019-01-26T19:35:46.053Z,44.30
2019-01-26T19:49:08.945Z,44.20
2019-01-26T20:02:31.701Z,44.20
2019-01-26T20:15:54.500Z,44.10
2019-01-26T20:29:17.305Z,44.20
2019-01-26T20:42:40.117Z,44.20
2019-01-26T20:56:03.006Z,43.90
2019-01-26T21:09:25.790Z,44.90
2019-01-26T21:22:48.723Z,45.60
2019-01-26T21:36:11.492Z,45.70
2019-01-26T22:02:35.966Z,46.10
2019-01-26T22:15:43.105Z,45.50
2019-01-26T22:28:50.356Z,45.60
2019-01-26T22:41:57.642Z,46.30
2019-01-26T22:55:04.842Z,46.60
2019-01-26T23:08:12.262Z,46.70
2019-01-26T23:21:35.710Z,46.90
2019-01-26T23:34:58.542Z,47.00
2019-01-26T23:48:21.230Z,47.40
